createdAt,value
2022-09-28T00:01:41.353Z,93.31
2022-09-28T00:04:07.851Z,93.27
2022-09-28T00:06:34.212Z,93.25
2022-09-28T00:09:01.774Z,93.02
2022-09-28T00:11:29.013Z,93.18
2022-09-28T00:14:02.314Z,93.14
2022-09-28T00:16:32.746Z,93.15
2022-09-28T00:18:59.875Z,93.15
2022-09-28T00:21:29.168Z,93.09
2022-09-28T00:24:17.055Z,93.56
2022-09-28T00:26:55.013Z,93.26
2022-09-28T00:29:30.057Z,93.38
2022-09-28T00:32:00.533Z,93.47
2022-09-28T00:34:27.464Z,93.15
2022-09-28T00:36:53.917Z,93.36
2022-09-28T00:39:20.284Z,93.44
2022-09-28T00:41:47.092Z,93.58
2022-09-28T00:44:31.441Z,93.18
2022-09-28T00:47:13.915Z,93.44
2022-09-28T00:49:52.381Z,93.65
2022-09-28T00:52:28.784Z,93.61
2022-09-28T00:54:58.034Z,93.84
2022-09-28T00:57:25.441Z,93.74
2022-09-28T00:59:52.166Z,93.91
2022-09-28T01:02:19.817Z,93.95
2022-09-28T01:04:47.090Z,93.88
2022-09-28T01:07:14.295Z,93.82
2022-09-28T01:09:40.732Z,93.81
2022-09-28T01:12:07.925Z,93.78
2022-09-28T01:14:34.590Z,94.03
2022-09-28T01:17:11.951Z,93.70
2022-09-28T01:19:47.408Z,93.59
2022-09-28T01:22:22.941Z,94.01
2022-09-28T01:24:59.980Z,93.74
2022-09-28T01:27:36.077Z,93.77
2022-09-28T01:30:02.510Z,93.92
2022-09-28T01:33:04.876Z,93.61
2022-09-28T01:35:37.350Z,93.22
2022-09-28T01:38:15.224Z,94.07
2022-09-28T01:40:42.269Z,93.71
2022-09-28T01:43:15.458Z,93.86
2022-09-28T01:45:49.004Z,93.97
2022-09-28T01:48:23.022Z,94.08
2022-09-28T01:50:53.502Z,94.13
2022-09-28T01:53:25.796Z,93.99
2022-09-28T01:55:57.879Z,94.07
2022-09-28T01:58:30.078Z,93.99
2022-09-28T02:01:03.317Z,93.77
2022-09-28T02:03:38.784Z,93.73
2022-09-28T02:06:11.140Z,93.92
2022-09-28T02:08:44.248Z,94.04
2022-09-28T02:11:16.390Z,93.75
2022-09-28T02:13:45.625Z,94.00
2022-09-28T02:16:41.406Z,93.53
2022-09-28T02:19:17.773Z,93.54
2022-09-28T02:22:11.481Z,93.93
2022-09-28T02:24:40.861Z,93.61
2022-09-28T02:27:15.579Z,93.36
2022-09-28T02:29:41.982Z,93.44
2022-09-28T02:32:08.387Z,93.60
2022-09-28T02:34:35.594Z,93.72
2022-09-28T02:37:02.794Z,93.86
2022-09-28T02:39:29.544Z,93.47
2022-09-28T02:42:20.663Z,93.64
2022-09-28T02:45:02.966Z,93.71
2022-09-28T02:48:10.888Z,93.63
2022-09-28T02:51:11.245Z,94.08
2022-09-28T02:53:57.576Z,93.69
2022-09-28T02:56:55.979Z,94.12
2022-09-28T03:00:18.058Z,94.09
2022-09-28T03:03:31.878Z,94.16
2022-09-28T03:06:00.225Z,93.86
2022-09-28T03:08:46.624Z,93.75
2022-09-28T03:11:19.141Z,93.77
2022-09-28T03:13:45.905Z,94.11
2022-09-28T03:16:13.915Z,93.82
2022-09-28T03:18:41.203Z,94.29
2022-09-28T03:21:07.914Z,94.04
2022-09-28T03:23:34.262Z,93.92
2022-09-28T03:26:00.627Z,94.28
2022-09-28T03:28:27.895Z,93.87
2022-09-28T03:30:54.327Z,93.84
2022-09-28T03:33:20.939Z,94.19
2022-09-28T03:35:49.641Z,93.88
2022-09-28T03:38:18.122Z,93.75
2022-09-28T03:40:52.110Z,93.71
2022-09-28T03:43:18.495Z,93.83
2022-09-28T03:45:51.854Z,93.89
2022-09-28T03:48:24.485Z,94.18
2022-09-28T03:50:58.031Z,93.97
2022-09-28T03:53:25.564Z,93.73
2022-09-28T03:55:53.300Z,93.74
2022-09-28T03:58:23.110Z,93.90
2022-09-28T04:00:49.893Z,93.94
2022-09-28T04:03:16.309Z,94.20
2022-09-28T04:05:53.353Z,94.00
2022-09-28T04:08:20.140Z,93.77
2022-09-28T04:10:47.113Z,94.08
2022-09-28T04:13:13.808Z,93.66
2022-09-28T04:15:40.144Z,93.61
2022-09-28T04:18:13.468Z,94.07
2022-09-28T04:20:45.327Z,93.99
2022-09-28T04:23:12.297Z,93.73
2022-09-28T04:25:39.561Z,93.90
2022-09-28T04:28:24.436Z,93.96
2022-09-28T04:30:50.744Z,93.98
2022-09-28T04:33:17.044Z,93.78
2022-09-28T04:35:43.404Z,93.58
2022-09-28T04:38:09.708Z,93.90
2022-09-28T04:40:36.133Z,94.04
2022-09-28T04:43:02.508Z,93.90
2022-09-28T04:45:28.900Z,93.98
2022-09-28T04:47:55.317Z,94.00
2022-09-28T04:50:21.827Z,93.89
2022-09-28T04:52:48.228Z,94.09
2022-09-28T04:55:14.943Z,94.33
2022-09-28T04:57:41.284Z,93.97
2022-09-28T05:00:08.947Z,93.95
2022-09-28T05:02:35.464Z,94.13
2022-09-28T05:05:02.018Z,94.14
2022-09-28T05:07:29.232Z,93.68
2022-09-28T05:09:55.837Z,94.03
2022-09-28T05:12:22.191Z,93.64
2022-09-28T05:14:48.530Z,93.99
2022-09-28T05:17:14.888Z,93.65
2022-09-28T05:19:41.201Z,94.18
2022-09-28T05:22:11.530Z,93.92
2022-09-28T05:24:37.956Z,93.75
2022-09-28T05:27:05.015Z,94.45
2022-09-28T05:29:32.349Z,94.48
2022-09-28T05:32:01.379Z,94.00
2022-09-28T05:34:27.990Z,93.97
2022-09-28T05:36:54.309Z,94.54
2022-09-28T05:39:20.768Z,94.30
2022-09-28T05:41:47.137Z,94.00
2022-09-28T05:44:13.473Z,94.33
2022-09-28T05:46:39.914Z,94.17
2022-09-28T05:49:06.211Z,93.87
2022-09-28T05:51:32.542Z,94.41
2022-09-28T05:54:04.680Z,94.14
2022-09-28T05:56:32.309Z,94.39
2022-09-28T05:58:58.873Z,94.06
2022-09-28T06:01:25.318Z,94.21
2022-09-28T06:03:51.703Z,94.27
2022-09-28T06:06:18.018Z,94.17
2022-09-28T06:08:46.139Z,94.94
2022-09-28T06:11:12.735Z,94.64
2022-09-28T06:13:42.463Z,94.89
2022-09-28T06:16:10.428Z,94.66
2022-09-28T06:18:36.863Z,94.79
2022-09-28T06:21:03.884Z,94.84
2022-09-28T06:23:30.242Z,95.36
2022-09-28T06:25:58.952Z,94.91
2022-09-28T06:28:26.798Z,95.10
2022-09-28T06:30:53.952Z,95.16
2022-09-28T06:33:20.626Z,95.09
2022-09-28T06:35:47.084Z,95.07
2022-09-28T06:38:13.692Z,95.56
2022-09-28T06:40:40.064Z,95.18
2022-09-28T06:43:10.699Z,95.36
2022-09-28T06:45:38.384Z,95.40
2022-09-28T06:48:06.278Z,95.54
2022-09-28T06:50:39.464Z,95.76
2022-09-28T06:53:09.240Z,95.60
2022-09-28T06:55:39.043Z,95.63
2022-09-28T06:58:09.361Z,95.86
2022-09-28T07:00:37.500Z,95.60
2022-09-28T07:03:06.964Z,96.06
2022-09-28T07:05:36.675Z,95.84
2022-09-28T07:08:04.344Z,96.08
2022-09-28T07:10:31.795Z,95.98
2022-09-28T07:13:02.490Z,95.60
2022-09-28T07:15:29.768Z,95.92
2022-09-28T07:18:03.277Z,95.95
2022-09-28T07:20:31.364Z,96.02
2022-09-28T07:23:12.775Z,96.21
2022-09-28T07:25:47.681Z,96.12
2022-09-28T07:28:14.337Z,96.07
2022-09-28T07:30:40.909Z,96.05
2022-09-28T07:33:09.363Z,96.03
2022-09-28T07:35:35.781Z,95.99
2022-09-28T07:38:04.276Z,96.35
2022-09-28T07:40:50.505Z,96.08
2022-09-28T07:43:20.738Z,95.88
2022-09-28T07:45:49.249Z,96.07
2022-09-28T07:48:16.829Z,96.07
2022-09-28T07:50:57.185Z,96.06
2022-09-28T07:53:25.463Z,95.71
2022-09-28T07:55:56.831Z,95.96
2022-09-28T07:58:23.304Z,95.35
2022-09-28T08:00:50.589Z,95.75
2022-09-28T08:03:18.526Z,95.50
2022-09-28T08:05:46.788Z,94.99
2022-09-28T08:08:13.969Z,94.78
2022-09-28T08:10:46.523Z,94.63
2022-09-28T08:13:14.943Z,94.43
2022-09-28T08:15:42.149Z,94.35
2022-09-28T08:18:08.479Z,94.14
2022-09-28T08:20:53.140Z,93.69
2022-09-28T08:23:20.273Z,93.70
2022-09-28T08:25:52.448Z,92.68
2022-09-28T08:28:18.816Z,92.42
2022-09-28T08:30:46.518Z,91.82
2022-09-28T08:33:13.659Z,91.43
2022-09-28T08:35:43.079Z,90.93
2022-09-28T08:38:10.821Z,90.35
2022-09-28T08:41:15.884Z,89.80
2022-09-28T08:43:45.258Z,89.43
2022-09-28T08:46:13.351Z,89.04
2022-09-28T08:49:13.377Z,88.24
2022-09-28T08:52:00.285Z,87.38
2022-09-28T08:54:51.620Z,86.37
2022-09-28T08:57:26.472Z,85.66
2022-09-28T08:59:55.957Z,85.79
2022-09-28T09:02:27.265Z,85.07
2022-09-28T09:04:54.557Z,84.30
2022-09-28T09:07:49.336Z,83.43
2022-09-28T09:10:37.241Z,83.54
2022-09-28T09:13:31.404Z,82.37
2022-09-28T09:16:04.747Z,81.51
2022-09-28T09:18:49.163Z,80.74
2022-09-28T09:21:32.177Z,81.40
2022-09-28T09:24:18.448Z,81.60
2022-09-28T09:26:45.660Z,81.25
2022-09-28T09:29:45.529Z,79.80
2022-09-28T09:32:33.678Z,79.79
2022-09-28T09:35:22.375Z,79.25
2022-09-28T09:38:06.964Z,80.32
2022-09-28T09:40:42.905Z,81.45
2022-09-28T09:43:28.043Z,80.67
2022-09-28T09:46:18.224Z,76.97
2022-09-28T09:48:50.717Z,76.89
2022-09-28T09:51:24.883Z,76.73
2022-09-28T09:54:05.680Z,77.03
2022-09-28T09:56:43.893Z,76.55
2022-09-28T09:59:18.925Z,74.01
2022-09-28T10:01:45.972Z,74.08
2022-09-28T10:04:21.451Z,73.99
2022-09-28T10:06:51.340Z,72.59
2022-09-28T10:09:24.969Z,69.30
2022-09-28T10:11:51.981Z,71.16
2022-09-28T10:14:21.423Z,69.21
2022-09-28T10:16:50.510Z,69.37
2022-09-28T10:19:19.356Z,67.91
2022-09-28T10:21:50.164Z,68.65
2022-09-28T10:24:56.711Z,68.71
2022-09-28T10:27:33.896Z,65.44
2022-09-28T10:30:09.289Z,64.67
2022-09-28T10:32:44.471Z,64.39
2022-09-28T10:35:20.133Z,64.81
2022-09-28T10:38:07.838Z,65.99
2022-09-28T10:40:50.478Z,67.60
2022-09-28T10:43:26.909Z,64.38
2022-09-28T10:46:05.623Z,63.44
2022-09-28T10:48:49.935Z,62.49
2022-09-28T10:51:16.985Z,63.98
2022-09-28T10:53:58.821Z,65.48
2022-09-28T10:56:28.855Z,65.53
2022-09-28T10:58:55.708Z,63.83
2022-09-28T11:01:31.126Z,63.11
2022-09-28T11:04:01.062Z,64.01
2022-09-28T11:06:31.053Z,65.77
2022-09-28T11:09:01.229Z,63.94
2022-09-28T11:11:29.522Z,63.92
2022-09-28T11:14:00.948Z,61.23
2022-09-28T11:16:31.717Z,59.70
2022-09-28T11:19:19.432Z,59.64
2022-09-28T11:21:46.174Z,57.45
2022-09-28T11:24:19.030Z,58.67
2022-09-28T11:26:49.529Z,56.55
2022-09-28T11:29:36.249Z,57.12
2022-09-28T11:32:05.419Z,57.26
2022-09-28T11:34:58.636Z,57.57
2022-09-28T11:38:01.550Z,56.40
2022-09-28T11:40:32.404Z,55.72
2022-09-28T11:43:13.239Z,55.31
2022-09-28T11:45:54.572Z,54.89
2022-09-28T11:48:28.567Z,55.10
2022-09-28T11:51:02.072Z,55.39
2022-09-28T11:53:43.760Z,57.40
2022-09-28T11:56:28.627Z,57.96
2022-09-28T11:59:06.373Z,59.15
2022-09-28T12:01:50.183Z,58.75
2022-09-28T12:04:24.988Z,59.00
2022-09-28T12:07:03.811Z,59.38
2022-09-28T12:09:40.390Z,59.26
2022-09-28T12:12:19.995Z,59.43
2022-09-28T12:14:47.309Z,60.10
2022-09-28T12:17:34.408Z,59.95
2022-09-28T12:20:30.372Z,59.88
2022-09-28T12:22:59.441Z,58.06
2022-09-28T12:25:28.774Z,58.00
2022-09-28T12:28:00.364Z,57.40
2022-09-28T12:30:32.758Z,58.55
2022-09-28T12:33:04.225Z,58.18
2022-09-28T12:36:04.709Z,59.54
2022-09-28T12:38:34.076Z,61.28
2022-09-28T12:41:22.519Z,65.91
2022-09-28T12:44:13.213Z,70.26
2022-09-28T12:47:16.407Z,74.29
2022-09-28T12:50:38.198Z,75.09
2022-09-28T12:53:16.009Z,77.46
2022-09-28T12:56:00.952Z,80.01
2022-09-28T12:58:48.373Z,81.40
2022-09-28T13:01:30.122Z,81.12
2022-09-28T13:04:15.977Z,81.27
2022-09-28T13:06:54.338Z,81.74
2022-09-28T13:09:26.113Z,81.93
2022-09-28T13:11:55.633Z,82.43
2022-09-28T13:14:27.995Z,83.06
2022-09-28T13:17:29.654Z,83.41
2022-09-28T13:20:20.706Z,83.99
2022-09-28T13:22:56.784Z,83.98
2022-09-28T13:25:27.100Z,84.28
2022-09-28T13:27:59.105Z,83.99
2022-09-28T13:30:25.672Z,84.37
2022-09-28T13:32:56.194Z,84.85
2022-09-28T13:35:23.384Z,85.12
2022-09-28T13:38:16.153Z,85.41
2022-09-28T13:41:04.376Z,85.07
2022-09-28T13:44:01.848Z,82.39
2022-09-28T13:46:47.435Z,82.38
2022-09-28T13:49:19.430Z,82.18
2022-09-28T13:52:02.305Z,82.11
2022-09-28T13:55:03.528Z,80.65
2022-09-28T13:57:33.953Z,78.93
2022-09-28T14:00:02.868Z,80.02
2022-09-28T14:02:39.218Z,79.82
2022-09-28T14:05:31.674Z,76.74
2022-09-28T14:08:26.180Z,75.58
2022-09-28T14:10:57.385Z,77.18
2022-09-28T14:13:41.941Z,76.55
2022-09-28T14:16:32.356Z,77.78
2022-09-28T14:19:01.724Z,77.65
2022-09-28T14:21:46.436Z,76.39
2022-09-28T14:24:46.675Z,77.21
2022-09-28T14:27:29.659Z,78.32
2022-09-28T14:30:11.322Z,79.30
2022-09-28T14:32:40.566Z,79.56
2022-09-28T14:35:31.663Z,80.10
2022-09-28T14:38:22.195Z,80.67
2022-09-28T14:41:10.600Z,79.99
2022-09-28T14:43:46.019Z,79.93
2022-09-28T14:46:12.386Z,80.24
2022-09-28T14:48:50.968Z,78.66
2022-09-28T14:51:26.567Z,78.96
2022-09-28T14:53:54.969Z,78.91
2022-09-28T14:56:22.157Z,78.60
2022-09-28T14:58:54.857Z,78.76
2022-09-28T15:01:24.635Z,79.21
2022-09-28T15:04:04.497Z,79.93
2022-09-28T15:07:00.174Z,80.49
2022-09-28T15:09:37.544Z,80.40
2022-09-28T15:12:29.931Z,80.79
2022-09-28T15:15:02.062Z,80.85
2022-09-28T15:17:37.028Z,81.02
2022-09-28T15:20:06.144Z,80.95
2022-09-28T15:22:33.553Z,81.11
2022-09-28T15:25:02.972Z,81.12
2022-09-28T15:27:37.984Z,81.23
2022-09-28T15:30:26.304Z,81.39
2022-09-28T15:32:56.557Z,81.16
2022-09-28T15:35:27.495Z,81.04
2022-09-28T15:37:55.244Z,81.68
2022-09-28T15:40:34.309Z,82.13
2022-09-28T15:43:02.386Z,82.07
2022-09-28T15:45:39.855Z,82.31
2022-09-28T15:48:28.972Z,81.85
2022-09-28T15:51:00.037Z,81.48
2022-09-28T15:53:26.821Z,81.64
2022-09-28T15:56:01.141Z,81.22
2022-09-28T15:58:28.918Z,81.54
2022-09-28T16:01:36.239Z,81.68
2022-09-28T16:04:33.780Z,81.73
2022-09-28T16:07:09.136Z,81.91
2022-09-28T16:09:53.771Z,81.96
2022-09-28T16:12:21.635Z,81.89
2022-09-28T16:14:51.196Z,81.92
2022-09-28T16:17:33.291Z,81.92
2022-09-28T16:20:03.429Z,81.38
2022-09-28T16:22:32.698Z,81.23
2022-09-28T16:25:00.929Z,81.36
2022-09-28T16:27:41.353Z,81.06
2022-09-28T16:30:27.093Z,80.66
2022-09-28T16:32:56.263Z,80.87
2022-09-28T16:35:40.584Z,81.09
2022-09-28T16:38:14.883Z,81.12
2022-09-28T16:40:44.132Z,80.89
2022-09-28T16:43:26.789Z,80.38
2022-09-28T16:45:58.281Z,80.34
2022-09-28T16:48:30.095Z,80.71
2022-09-28T16:50:58.039Z,80.45
2022-09-28T16:53:43.627Z,80.65
2022-09-28T16:56:11.206Z,80.94
2022-09-28T16:58:38.883Z,80.85
2022-09-28T17:01:09.510Z,81.41
2022-09-28T17:03:36.070Z,81.51
2022-09-28T17:06:04.320Z,81.67
2022-09-28T17:08:30.624Z,82.26
2022-09-28T17:11:20.187Z,82.13
2022-09-28T17:13:47.080Z,82.46
2022-09-28T17:16:21.030Z,82.86
2022-09-28T17:18:51.634Z,82.73
2022-09-28T17:21:20.516Z,82.73
2022-09-28T17:23:49.107Z,83.20
2022-09-28T17:26:30.906Z,83.92
2022-09-28T17:28:59.291Z,83.87
2022-09-28T17:31:25.900Z,83.80
2022-09-28T17:33:52.331Z,83.71
2022-09-28T17:36:18.995Z,83.53
2022-09-28T17:38:46.697Z,83.90
2022-09-28T17:41:20.452Z,84.42
2022-09-28T17:43:47.610Z,84.43
2022-09-28T17:46:34.791Z,84.40
2022-09-28T17:49:03.793Z,84.65
2022-09-28T17:51:32.438Z,84.63
2022-09-28T17:54:00.895Z,85.31
2022-09-28T17:56:31.942Z,85.24
2022-09-28T17:59:01.026Z,85.02
2022-09-28T18:01:33.663Z,84.85
2022-09-28T18:04:02.651Z,84.75
2022-09-28T18:06:37.296Z,84.99
2022-09-28T18:09:04.611Z,85.09
2022-09-28T18:11:32.605Z,85.28
2022-09-28T18:13:59.050Z,85.54
2022-09-28T18:16:27.776Z,85.33
2022-09-28T18:18:54.357Z,85.62
2022-09-28T18:21:20.737Z,85.57
2022-09-28T18:23:47.080Z,85.38
2022-09-28T18:26:15.159Z,85.41
2022-09-28T18:28:42.147Z,85.47
2022-09-28T18:31:10.420Z,85.36
2022-09-28T18:33:52.807Z,85.71
2022-09-28T18:36:19.134Z,85.93
2022-09-28T18:38:45.492Z,85.72
2022-09-28T18:41:15.431Z,85.93
2022-09-28T18:43:49.297Z,86.06
2022-09-28T18:46:17.504Z,86.28
2022-09-28T18:48:43.944Z,85.94
2022-09-28T18:51:12.170Z,85.97
2022-09-28T18:53:39.917Z,86.21
2022-09-28T18:56:12.167Z,86.32
2022-09-28T18:58:40.134Z,86.06
2022-09-28T19:01:29.314Z,86.39
2022-09-28T19:03:59.969Z,86.53
2022-09-28T19:06:26.335Z,86.65
2022-09-28T19:08:55.536Z,86.73
2022-09-28T19:11:22.663Z,86.97
2022-09-28T19:13:49.103Z,86.95
2022-09-28T19:16:18.060Z,86.93
2022-09-28T19:18:44.910Z,87.02
2022-09-28T19:21:13.995Z,87.25
2022-09-28T19:23:44.787Z,87.02
2022-09-28T19:26:16.814Z,87.15
2022-09-28T19:28:43.461Z,87.43
2022-09-28T19:31:11.546Z,87.28
2022-09-28T19:33:39.136Z,87.26
2022-09-28T19:36:08.302Z,87.36
2022-09-28T19:38:36.812Z,87.39
2022-09-28T19:41:11.895Z,87.54
2022-09-28T19:43:38.982Z,87.56
2022-09-28T19:46:06.736Z,87.79
2022-09-28T19:48:34.454Z,87.95
2022-09-28T19:51:06.098Z,88.16
2022-09-28T19:53:36.520Z,88.13
2022-09-28T19:56:05.495Z,88.01
2022-09-28T19:58:35.549Z,87.78
2022-09-28T20:01:08.175Z,88.09
2022-09-28T20:03:34.736Z,88.48
2022-09-28T20:06:01.753Z,88.25
2022-09-28T20:08:32.043Z,88.19
2022-09-28T20:10:59.823Z,88.24
2022-09-28T20:13:31.692Z,88.55
2022-09-28T20:16:12.428Z,88.52
2022-09-28T20:18:43.464Z,88.27
2022-09-28T20:21:18.137Z,88.64
2022-09-28T20:23:45.135Z,88.71
2022-09-28T20:26:12.254Z,88.86
2022-09-28T20:28:39.005Z,88.82
2022-09-28T20:31:20.520Z,89.08
2022-09-28T20:33:47.348Z,89.05
2022-09-28T20:36:17.395Z,89.16
2022-09-28T20:38:46.595Z,89.34
2022-09-28T20:41:15.075Z,89.18
2022-09-28T20:43:41.587Z,89.36
2022-09-28T20:46:10.273Z,89.13
2022-09-28T20:48:37.003Z,89.27
2022-09-28T20:51:22.147Z,89.04
2022-09-28T20:53:50.669Z,89.31
2022-09-28T20:56:20.175Z,89.12
2022-09-28T20:58:47.149Z,88.98
2022-09-28T21:01:19.586Z,89.16
2022-09-28T21:03:48.644Z,89.13
2022-09-28T21:06:17.223Z,89.01
2022-09-28T21:08:44.671Z,89.04
2022-09-28T21:11:12.842Z,88.95
2022-09-28T21:13:42.817Z,89.17
2022-09-28T21:16:17.934Z,89.27
2022-09-28T21:18:44.964Z,89.19
2022-09-28T21:21:15.946Z,89.16
2022-09-28T21:23:45.512Z,89.33
2022-09-28T21:26:26.556Z,89.35
2022-09-28T21:28:54.350Z,89.53
2022-09-28T21:31:26.182Z,89.47
2022-09-28T21:33:55.523Z,89.61
2022-09-28T21:36:21.833Z,89.64
2022-09-28T21:38:48.140Z,89.65
2022-09-28T21:41:14.725Z,89.85
2022-09-28T21:43:41.058Z,89.82
2022-09-28T21:46:07.494Z,90.07
2022-09-28T21:48:33.820Z,90.06
2022-09-28T21:51:02.985Z,90.02
2022-09-28T21:53:31.695Z,90.02
2022-09-28T21:55:59.993Z,90.00
2022-09-28T21:58:29.863Z,90.13
2022-09-28T22:01:14.628Z,90.15
2022-09-28T22:03:43.832Z,90.21
2022-09-28T22:06:10.624Z,90.10
2022-09-28T22:08:37.687Z,90.34
2022-09-28T22:11:06.051Z,90.31
2022-09-28T22:13:34.571Z,90.28
2022-09-28T22:16:01.676Z,90.37
2022-09-28T22:18:29.905Z,90.30
2022-09-28T22:21:12.261Z,90.00
2022-09-28T22:23:39.336Z,90.08
2022-09-28T22:26:11.059Z,90.15
2022-09-28T22:28:38.839Z,90.15
2022-09-28T22:31:06.004Z,89.83
2022-09-28T22:33:32.419Z,89.72
2022-09-28T22:35:58.723Z,89.86
2022-09-28T22:38:25.097Z,89.88
2022-09-28T22:40:54.513Z,89.70
2022-09-28T22:43:23.322Z,89.84
2022-09-28T22:45:49.924Z,89.88
2022-09-28T22:48:16.300Z,89.81
2022-09-28T22:50:50.381Z,89.71
2022-09-28T22:53:17.261Z,90.02
2022-09-28T22:55:43.653Z,89.98
2022-09-28T22:58:10.600Z,90.18
2022-09-28T23:00:37.105Z,89.70
2022-09-28T23:03:04.451Z,89.93
2022-09-28T23:05:31.239Z,90.05
2022-09-28T23:07:57.577Z,89.96
2022-09-28T23:10:24.255Z,89.67
2022-09-28T23:12:53.272Z,89.58
2022-09-28T23:15:20.074Z,89.74
2022-09-28T23:17:50.904Z,89.43
2022-09-28T23:20:17.232Z,89.38
2022-09-28T23:22:47.928Z,89.80
2022-09-28T23:25:15.646Z,89.58
2022-09-28T23:27:49.485Z,89.87
2022-09-28T23:30:19.040Z,89.81
2022-09-28T23:32:45.714Z,89.51
2022-09-28T23:35:14.021Z,89.55
2022-09-28T23:37:40.360Z,89.45
2022-09-28T23:40:07.338Z,89.51
2022-09-28T23:42:34.822Z,89.79
2022-09-28T23:45:01.268Z,89.84
2022-09-28T23:47:27.580Z,89.51
2022-09-28T23:49:53.902Z,89.67
2022-09-28T23:52:20.238Z,90.08
2022-09-28T23:54:46.566Z,89.75
2022-09-28T23:57:12.884Z,90.32
2022-09-28T23:59:39.272Z,90.41
